Pagina principale
METAR-TAF:

METAR-TAF

Aeroporti :

Aeroporto di Calvi Sainte-Catherine

Calvi, Francia

latitudine: 42-32N, longitudine: 008-48E, altezza: 64 m

Osservazione

Il bollettino è stato emesso 35 minuti fa, alle 02:30 UTC
Vento 6 kt da sud
Temperature 15°C
Umidità 88%
Pressione 1013 hPa
Visibilità 10 km o più
nessuna nube inferiore a 1500 m e nessun cumulonembo

METAR: LFKC 190230Z AUTO 18006KT CAVOK 15/13 Q1013 NOSIG

Ora: 05:05 (03:05 UTC)

Previsione

Il bollettino è stato emesso 1 ora e 5 minuti fa, alle 02:00 UTC
Previsione valida dal 19 alle 03 UTC al 20 alle 03 UTC
Vento 4 kt da sud
Visibilità 10 km o più
nessuna nube inferiore a 1500 m e nessun cumulonembo
Evoluzione graduale
dal 19 alle 08 UTC al 19 alle 09 UTC
Vento 10 kt da nord
Evoluzione graduale
dal 19 alle 17 UTC al 19 alle 18 UTC
Vento 4 kt da sud

TAF: LFKC 190200Z 1903/2003 19004KT CAVOK TX26/1912Z TN14/1904Z BECMG 1908/1909 35010KT BECMG 1917/1918 18004KT

Osservazioni e previsioni meteorologiche di più di 4000 aeroporti (messaggi METAR e TAF).

Le stazioni disponibili sono rappresentate dai dischi gialli e rossi sulla carta.

Puntare il mouse per vedere il nome della stazione.

Clicca sopra per visualizzare le osservazioni e previsioni meteorologiche.

Per cambiare la mappa : fare clic sui pulsanti verdi con una croce nera per ingrandire, il pulsante verde con un trattino per diminuire, o sulla freccia verde per le mappe adiacenti.


METAR-TAF: